Lyons, CO (80540)

9:11 PM MDT on October 25, 2014 (GMT -0600)
Kelling | Change Station
CLOSE
Current Station
Personal Weather Station
Location: Lyons, CO
Elevation: 5436 ft
Nearby Weather Stations

Elev 5436 ft 40.22 °N, 105.26 °W | Updated 7 seconds ago

Clear
Clear
55.2 °F
Feels Like 55.2 °F
N
2.2
Wind Variable Wind from NE
Gusts 3.8 mph

Today
High -- | Low -- °F
--% Chance of Precip.
Yesterday
High -- | Low -- °F
Precip. -- in
7:22 AM 6:06 PM
Waxing Crescent, 5% visible
Pressure 30.04 in
Visibility 7.0 miles
Clouds Clear
Dew Point 22 °F
Humidity 27%
Rainfall 0.00 in
Snow Depth 0 in , 1 in , 0 in
UV 0 out of 12
Pollen 2.90 out of 12
Ozone Good
PM2.5 Good
Flu Activity Sporadic
METAR KLMO 260253Z AUTO 00000KT 7SM CLR 13/M02 A3004 RMK AO2 T01331023

More Conditions Fewer Conditions

Pressure 30.04 in
Visibility 7.0 miles
Clouds Clear
Dew Point 22 °F
Humidity 27%
Rainfall 0.00 in
Snow Depth 0 in , 1 in , 0 in
UV 0 out of 12
Pollen 2.90 out of 12
Ozone Good
PM2.5 Good
Flu Activity Sporadic
METAR KLMO 260253Z AUTO 00000KT 7SM CLR 13/M02 A3004 RMK AO2 T01331023

More Conditions Fewer Conditions

10-Day Weather Forecast

Almanac

Astronomy

Oct. 25, 2014 Rise Set
Actual Time 7:22 AM MDT 6:06 PM MDT
Civil Twilight 6:54 AM MDT 6:34 PM MDT
Nautical Twilight 6:23 AM MDT 7:06 PM MDT
Astronomical Twilight 5:51 AM MDT 7:38 PM MDT
Moon 9:04 AM MDT (10/25) 7:31 PM MDT (10/25)
Length of Visible Light 11h 39m
Length of Day
10h 44m
Tomorrow will be 2m 27s shorter.
Waxing Crescent, 5% of the Moon is Illuminated
Today
Waxing Crescent
Oct 30
First Quarter
Nov 6
Full
Nov 14
Last Quarter
Nov 22
New

Today's Extremes

State Highs State Lows

Community

WunderPhotos

Upload Photos

1,765,093 photos uploaded!

Nearby

Air Quality

  Air Quality AQ Index Pollutant
Yesterday Good
PM10
Yesterday Good
OZONE
Current Good
PM2.5
Current Good
OZONE
Saturday Good
OZONE
Saturday Good
PM2.5
Sunday Good
OZONE
Sunday Good
PM2.5
Monday Good
OZONE
Monday Good
PM2.5

Snow Depth

Station Depth Elevation
Copeland Lake 0 in 8600 ft
Wild Basin 1 in 9560 ft
Niwot 0 in 9910 ft
University Camp 0 in 10300 ft
Lake Eldora 0 in 9700 ft

Earthquake Activity

City Distance Mag. Time & Date
No recent earthquake activity has been reported nearby.
Minimum magnitude displayed is 2.5.

Coastal Water Temperatures

Place Temperature
No Stations Reporting

Nearby Weather Stations